sensor_id;sensor_type;location;lat;lon;timestamp;pressure;altitude;pressure_sealevel;temperature;humidity
59272;BME280;45043;51.068;7.026;2022-10-31T00:00:58;100912.94;;;12.90;54.27
59272;BME280;45043;51.068;7.026;2022-10-31T00:03:59;100912.91;;;12.83;54.30
59272;BME280;45043;51.068;7.026;2022-10-31T00:06:59;100918.47;;;12.82;54.47
59272;BME280;45043;51.068;7.026;2022-10-31T00:10:00;100914.34;;;12.79;54.47
59272;BME280;45043;51.068;7.026;2022-10-31T00:13:01;100913.69;;;12.71;54.63
59272;BME280;45043;51.068;7.026;2022-10-31T00:16:01;100918.38;;;12.69;54.81
59272;BME280;45043;51.068;7.026;2022-10-31T00:19:05;100920.81;;;12.63;54.99
59272;BME280;45043;51.068;7.026;2022-10-31T00:22:06;100910.94;;;12.57;54.79
59272;BME280;45043;51.068;7.026;2022-10-31T00:25:06;100914.25;;;12.59;54.79
59272;BME280;45043;51.068;7.026;2022-10-31T00:28:09;100913.19;;;12.54;55.34
59272;BME280;45043;51.068;7.026;2022-10-31T00:31:12;100913.41;;;12.52;55.33
59272;BME280;45043;51.068;7.026;2022-10-31T00:34:13;100916.28;;;12.51;55.36
59272;BME280;45043;51.068;7.026;2022-10-31T00:37:14;100904.53;;;12.45;55.50
59272;BME280;45043;51.068;7.026;2022-10-31T00:40:16;100904.38;;;12.47;55.21
59272;BME280;45043;51.068;7.026;2022-10-31T00:43:17;100906.34;;;12.38;55.73
59272;BME280;45043;51.068;7.026;2022-10-31T00:46:17;100897.63;;;12.16;56.26
59272;BME280;45043;51.068;7.026;2022-10-31T00:49:18;100920.56;;;12.10;56.02
59272;BME280;45043;51.068;7.026;2022-10-31T00:52:18;100927.91;;;12.08;56.42
59272;BME280;45043;51.068;7.026;2022-10-31T00:55:19;100924.25;;;12.09;56.62
59272;BME280;45043;51.068;7.026;2022-10-31T00:58:20;100933.88;;;12.10;56.32
59272;BME280;45043;51.068;7.026;2022-10-31T01:01:21;100940.19;;;12.03;56.63
59272;BME280;45043;51.068;7.026;2022-10-31T01:04:23;100947.47;;;11.94;56.63
59272;BME280;45043;51.068;7.026;2022-10-31T01:07:24;100939.25;;;11.89;56.52
59272;BME280;45043;51.068;7.026;2022-10-31T01:10:24;100955.06;;;11.97;56.56
59272;BME280;45043;51.068;7.026;2022-10-31T01:13:25;100933.28;;;11.87;57.07
59272;BME280;45043;51.068;7.026;2022-10-31T01:16:27;100950.72;;;11.89;57.27
59272;BME280;45043;51.068;7.026;2022-10-31T01:19:29;100939.25;;;11.89;57.07
59272;BME280;45043;51.068;7.026;2022-10-31T01:22:31;100927.72;;;11.82;57.06
59272;BME280;45043;51.068;7.026;2022-10-31T01:25:34;100929.38;;;11.83;57.21
59272;BME280;45043;51.068;7.026;2022-10-31T01:28:38;100922.63;;;11.87;56.94
59272;BME280;45043;51.068;7.026;2022-10-31T01:31:39;100917.53;;;11.85;57.24
59272;BME280;45043;51.068;7.026;2022-10-31T01:34:40;100918.72;;;11.83;57.19
59272;BME280;45043;51.068;7.026;2022-10-31T01:37:40;100902.09;;;11.74;57.26
59272;BME280;45043;51.068;7.026;2022-10-31T01:40:41;100905.09;;;11.71;57.65
59272;BME280;45043;51.068;7.026;2022-10-31T01:43:47;100897.69;;;11.66;57.87
59272;BME280;45043;51.068;7.026;2022-10-31T01:46:55;100897.69;;;11.66;57.84
59272;BME280;45043;51.068;7.026;2022-10-31T01:50:00;100888.53;;;11.69;58.14
59272;BME280;45043;51.068;7.026;2022-10-31T01:53:01;100893.19;;;11.67;58.03
59272;BME280;45043;51.068;7.026;2022-10-31T01:56:02;100880.47;;;11.62;58.33
59272;BME280;45043;51.068;7.026;2022-10-31T01:59:08;100879.44;;;11.63;58.11
59272;BME280;45043;51.068;7.026;2022-10-31T02:02:09;100879.06;;;11.66;58.03
59272;BME280;45043;51.068;7.026;2022-10-31T02:05:15;100882.94;;;11.64;57.95
59272;BME280;45043;51.068;7.026;2022-10-31T02:08:21;100878.84;;;11.61;58.41
59272;BME280;45043;51.068;7.026;2022-10-31T02:11:25;100875.16;;;11.62;58.08
59272;BME280;45043;51.068;7.026;2022-10-31T02:14:29;100866.34;;;11.62;58.19
59272;BME280;45043;51.068;7.026;2022-10-31T02:17:31;100876.34;;;11.60;58.35
59272;BME280;45043;51.068;7.026;2022-10-31T02:20:41;100872.88;;;11.59;58.31
59272;BME280;45043;51.068;7.026;2022-10-31T02:30:58;100879.16;;;11.52;58.38
59272;BME280;45043;51.068;7.026;2022-10-31T02:33:59;100883.59;;;11.44;58.76
59272;BME280;45043;51.068;7.026;2022-10-31T02:40:24;100905.97;;;11.50;58.63
59272;BME280;45043;51.068;7.026;2022-10-31T02:47:10;100897.63;;;11.60;58.46
59272;BME280;45043;51.068;7.026;2022-10-31T02:50:23;100888.47;;;11.62;58.18
59272;BME280;45043;51.068;7.026;2022-10-31T02:53:32;100894.00;;;11.67;57.79
59272;BME280;45043;51.068;7.026;2022-10-31T02:56:32;100903.41;;;11.63;57.69
59272;BME280;45043;51.068;7.026;2022-10-31T02:59:35;100917.09;;;11.60;57.91
59272;BME280;45043;51.068;7.026;2022-10-31T03:06:18;100900.38;;;11.45;58.06
59272;BME280;45043;51.068;7.026;2022-10-31T03:09:25;100891.28;;;11.33;58.14
59272;BME280;45043;51.068;7.026;2022-10-31T03:12:40;100913.75;;;11.30;58.45
59272;BME280;45043;51.068;7.026;2022-10-31T03:15:49;100894.47;;;11.21;58.48
59272;BME280;45043;51.068;7.026;2022-10-31T03:19:11;100894.75;;;11.12;58.71
59272;BME280;45043;51.068;7.026;2022-10-31T03:22:19;100905.31;;;11.05;59.22
59272;BME280;45043;51.068;7.026;2022-10-31T03:25:22;100904.88;;;11.02;59.33
59272;BME280;45043;51.068;7.026;2022-10-31T03:28:28;100910.41;;;11.00;59.24
59272;BME280;45043;51.068;7.026;2022-10-31T03:31:35;100907.09;;;10.98;58.85
59272;BME280;45043;51.068;7.026;2022-10-31T03:34:38;100909.75;;;10.98;58.97
59272;BME280;45043;51.068;7.026;2022-10-31T03:37:40;100907.50;;;10.95;59.57
59272;BME280;45043;51.068;7.026;2022-10-31T03:40:46;100902.78;;;10.97;59.40
59272;BME280;45043;51.068;7.026;2022-10-31T03:43:55;100901.78;;;10.98;59.21
59272;BME280;45043;51.068;7.026;2022-10-31T03:46:59;100901.34;;;10.94;59.61
59272;BME280;45043;51.068;7.026;2022-10-31T03:50:00;100902.34;;;10.93;59.34
59272;BME280;45043;51.068;7.026;2022-10-31T03:53:09;100896.84;;;10.95;59.10
59272;BME280;45043;51.068;7.026;2022-10-31T03:56:36;100895.75;;;10.89;59.06
59272;BME280;45043;51.068;7.026;2022-10-31T03:59:48;100900.63;;;10.86;59.01
59272;BME280;45043;51.068;7.026;2022-10-31T04:03:13;100900.53;;;10.79;59.49
59272;BME280;45043;51.068;7.026;2022-10-31T04:06:18;100895.31;;;10.86;59.40
59272;BME280;45043;51.068;7.026;2022-10-31T04:09:20;100890.00;;;10.86;59.00
59272;BME280;45043;51.068;7.026;2022-10-31T04:12:22;100888.72;;;10.82;59.33
59272;BME280;45043;51.068;7.026;2022-10-31T04:15:44;100897.44;;;10.76;59.64
59272;BME280;45043;51.068;7.026;2022-10-31T04:18:46;100894.78;;;10.76;59.38
59272;BME280;45043;51.068;7.026;2022-10-31T04:21:46;100905.41;;;10.76;59.36
59272;BME280;45043;51.068;7.026;2022-10-31T04:24:47;100900.50;;;10.72;59.60
59272;BME280;45043;51.068;7.026;2022-10-31T04:27:50;100887.22;;;10.72;59.81
59272;BME280;45043;51.068;7.026;2022-10-31T04:30:51;100880.63;;;10.68;59.56
59272;BME280;45043;51.068;7.026;2022-10-31T04:33:52;100891.25;;;10.68;59.89
59272;BME280;45043;51.068;7.026;2022-10-31T04:36:52;100873.38;;;10.62;59.82
59272;BME280;45043;51.068;7.026;2022-10-31T04:39:52;100874.75;;;10.58;60.02
59272;BME280;45043;51.068;7.026;2022-10-31T04:43:11;100882.72;;;10.58;60.56
59272;BME280;45043;51.068;7.026;2022-10-31T04:46:13;100878.78;;;10.54;60.23
59272;BME280;45043;51.068;7.026;2022-10-31T04:49:13;100877.78;;;10.55;60.21
59272;BME280;45043;51.068;7.026;2022-10-31T04:52:14;100872.81;;;10.52;60.34
59272;BME280;45043;51.068;7.026;2022-10-31T04:55:16;100872.00;;;10.52;60.48
59272;BME280;45043;51.068;7.026;2022-10-31T04:58:35;100864.97;;;10.44;60.72
59272;BME280;45043;51.068;7.026;2022-10-31T05:01:40;100870.28;;;10.44;60.84
59272;BME280;45043;51.068;7.026;2022-10-31T05:04:40;100872.28;;;10.42;60.79
59272;BME280;45043;51.068;7.026;2022-10-31T05:07:43;100868.66;;;10.43;60.83
59272;BME280;45043;51.068;7.026;2022-10-31T05:10:43;100852.72;;;10.43;60.73
59272;BME280;45043;51.068;7.026;2022-10-31T05:13:44;100848.03;;;10.45;60.74
59272;BME280;45043;51.068;7.026;2022-10-31T05:16:44;100842.09;;;10.43;60.77
59272;BME280;45043;51.068;7.026;2022-10-31T05:20:23;100839.94;;;10.53;62.21
59272;BME280;45043;51.068;7.026;2022-10-31T05:23:36;100838.72;;;10.70;61.75
59272;BME280;45043;51.068;7.026;2022-10-31T05:26:38;100839.06;;;10.82;61.52
59272;BME280;45043;51.068;7.026;2022-10-31T05:29:38;100826.84;;;10.88;61.82
59272;BME280;45043;51.068;7.026;2022-10-31T05:32:40;100841.78;;;11.10;61.41
59272;BME280;45043;51.068;7.026;2022-10-31T05:36:01;100843.56;;;11.25;61.14
59272;BME280;45043;51.068;7.026;2022-10-31T05:39:08;100836.19;;;11.27;60.12
59272;BME280;45043;51.068;7.026;2022-10-31T05:42:13;100847.47;;;11.29;60.14
59272;BME280;45043;51.068;7.026;2022-10-31T05:45:16;100842.75;;;11.31;59.54
59272;BME280;45043;51.068;7.026;2022-10-31T05:48:25;100828.78;;;11.22;59.84
59272;BME280;45043;51.068;7.026;2022-10-31T05:51:44;100837.78;;;11.21;59.46
59272;BME280;45043;51.068;7.026;2022-10-31T05:54:45;100830.88;;;11.27;59.83
59272;BME280;45043;51.068;7.026;2022-10-31T05:57:45;100839.13;;;11.32;59.33
59272;BME280;45043;51.068;7.026;2022-10-31T06:00:46;100833.22;;;11.36;59.88
59272;BME280;45043;51.068;7.026;2022-10-31T06:03:47;100831.38;;;11.37;59.41
59272;BME280;45043;51.068;7.026;2022-10-31T06:06:50;100846.13;;;11.39;59.32
59272;BME280;45043;51.068;7.026;2022-10-31T06:09:50;100843.47;;;11.39;59.39
59272;BME280;45043;51.068;7.026;2022-10-31T06:12:54;100836.03;;;11.35;59.03
59272;BME280;45043;51.068;7.026;2022-10-31T06:16:02;100836.09;;;11.41;58.73
59272;BME280;45043;51.068;7.026;2022-10-31T06:19:09;100840.22;;;11.44;58.88
59272;BME280;45043;51.068;7.026;2022-10-31T06:22:09;100830.09;;;11.33;58.85
59272;BME280;45043;51.068;7.026;2022-10-31T06:25:11;100838.84;;;11.27;58.52
59272;BME280;45043;51.068;7.026;2022-10-31T06:28:16;100829.38;;;11.17;59.14
59272;BME280;45043;51.068;7.026;2022-10-31T06:31:44;100831.38;;;11.15;59.23
59272;BME280;45043;51.068;7.026;2022-10-31T06:34:45;100837.78;;;11.21;59.32
59272;BME280;45043;51.068;7.026;2022-10-31T06:37:52;100840.09;;;11.31;58.91
59272;BME280;45043;51.068;7.026;2022-10-31T06:41:10;100847.09;;;11.32;58.92
59272;BME280;45043;51.068;7.026;2022-10-31T06:44:17;100836.03;;;11.35;58.74
59272;BME280;45043;51.068;7.026;2022-10-31T06:47:29;100837.34;;;11.39;59.02
59272;BME280;45043;51.068;7.026;2022-10-31T06:50:35;100845.16;;;11.47;58.81
59272;BME280;45043;51.068;7.026;2022-10-31T06:53:35;100849.47;;;11.48;58.33
59272;BME280;45043;51.068;7.026;2022-10-31T06:56:37;100851.31;;;11.48;58.39
59272;BME280;45043;51.068;7.026;2022-10-31T06:59:38;100844.38;;;11.53;58.04
59272;BME280;45043;51.068;7.026;2022-10-31T07:03:00;100848.94;;;11.59;57.75
59272;BME280;45043;51.068;7.026;2022-10-31T07:06:01;100849.75;;;11.60;57.95
59272;BME280;45043;51.068;7.026;2022-10-31T07:09:02;100838.50;;;11.58;57.95
59272;BME280;45043;51.068;7.026;2022-10-31T07:12:03;100853.88;;;11.62;58.27
59272;BME280;45043;51.068;7.026;2022-10-31T07:15:06;100853.06;;;11.62;57.56
59272;BME280;45043;51.068;7.026;2022-10-31T07:18:08;100842.34;;;11.55;57.86
59272;BME280;45043;51.068;7.026;2022-10-31T07:21:09;100832.38;;;11.36;57.99
59272;BME280;45043;51.068;7.026;2022-10-31T07:24:10;100838.53;;;11.36;58.03
59272;BME280;45043;51.068;7.026;2022-10-31T07:27:16;100837.34;;;11.39;58.11
59272;BME280;45043;51.068;7.026;2022-10-31T07:30:19;100850.47;;;11.47;58.17
59272;BME280;45043;51.068;7.026;2022-10-31T07:33:21;100851.75;;;11.51;58.17
59272;BME280;45043;51.068;7.026;2022-10-31T07:36:42;100849.47;;;11.48;58.19
59272;BME280;45043;51.068;7.026;2022-10-31T07:39:42;100851.16;;;11.56;58.41
59272;BME280;45043;51.068;7.026;2022-10-31T07:42:47;100869.94;;;11.76;57.63
59272;BME280;45043;51.068;7.026;2022-10-31T07:46:07;100861.34;;;11.74;57.37
59272;BME280;45043;51.068;7.026;2022-10-31T07:49:26;100865.81;;;11.73;57.21
59272;BME280;45043;51.068;7.026;2022-10-31T07:52:46;100874.50;;;11.82;57.88
59272;BME280;45043;51.068;7.026;2022-10-31T07:55:58;100866.81;;;12.00;57.34
59272;BME280;45043;51.068;7.026;2022-10-31T07:59:03;100868.59;;;12.28;56.74
59272;BME280;45043;51.068;7.026;2022-10-31T08:02:03;100868.66;;;12.41;56.72
59272;BME280;45043;51.068;7.026;2022-10-31T08:05:04;100860.88;;;12.46;56.04
59272;BME280;45043;51.068;7.026;2022-10-31T08:08:23;100861.88;;;12.32;56.26
59272;BME280;45043;51.068;7.026;2022-10-31T08:11:24;100868.81;;;12.26;56.70
59272;BME280;45043;51.068;7.026;2022-10-31T08:14:26;100851.78;;;12.21;56.91
59272;BME280;45043;51.068;7.026;2022-10-31T08:17:26;100870.25;;;12.29;56.86
59272;BME280;45043;51.068;7.026;2022-10-31T08:20:32;100855.28;;;12.21;56.87
59272;BME280;45043;51.068;7.026;2022-10-31T08:23:32;100843.97;;;12.19;57.01
59272;BME280;45043;51.068;7.026;2022-10-31T08:26:33;100852.59;;;12.21;56.91
59272;BME280;45043;51.068;7.026;2022-10-31T08:29:33;100850.94;;;12.13;57.39
59272;BME280;45043;51.068;7.026;2022-10-31T08:32:34;100845.53;;;12.00;57.52
59272;BME280;45043;51.068;7.026;2022-10-31T08:35:57;100852.97;;;12.11;57.71
59272;BME280;45043;51.068;7.026;2022-10-31T08:39:20;100837.44;;;12.22;57.34
59272;BME280;45043;51.068;7.026;2022-10-31T08:42:21;100850.22;;;12.46;57.17
59272;BME280;45043;51.068;7.026;2022-10-31T08:45:21;100848.13;;;12.76;56.66
59272;BME280;45043;51.068;7.026;2022-10-31T08:48:22;100835.00;;;12.88;56.29
59272;BME280;45043;51.068;7.026;2022-10-31T08:51:22;100834.59;;;12.98;56.20
59272;BME280;45043;51.068;7.026;2022-10-31T08:54:26;100825.78;;;12.97;56.04
59272;BME280;45043;51.068;7.026;2022-10-31T08:57:29;100822.31;;;13.03;55.78
59272;BME280;45043;51.068;7.026;2022-10-31T09:00:33;100820.66;;;13.22;55.77
59272;BME280;45043;51.068;7.026;2022-10-31T09:03:40;100806.91;;;13.25;55.44
59272;BME280;45043;51.068;7.026;2022-10-31T09:06:41;100824.16;;;13.36;55.38
59272;BME280;45043;51.068;7.026;2022-10-31T09:09:41;100817.97;;;13.42;55.22
59272;BME280;45043;51.068;7.026;2022-10-31T09:12:42;100818.78;;;13.49;54.78
59272;BME280;45043;51.068;7.026;2022-10-31T09:16:02;100818.38;;;13.59;54.81
59272;BME280;45043;51.068;7.026;2022-10-31T09:19:04;100814.47;;;13.55;54.51
59272;BME280;45043;51.068;7.026;2022-10-31T09:22:05;100814.66;;;13.60;54.60
59272;BME280;45043;51.068;7.026;2022-10-31T09:25:06;100811.81;;;13.61;54.28
59272;BME280;45043;51.068;7.026;2022-10-31T09:28:09;100814.25;;;13.70;54.60
59272;BME280;45043;51.068;7.026;2022-10-31T09:31:11;100802.56;;;13.71;54.48
59272;BME280;45043;51.068;7.026;2022-10-31T09:34:32;100796.19;;;13.72;54.42
59272;BME280;45043;51.068;7.026;2022-10-31T09:37:46;100787.97;;;13.67;54.64
59272;BME280;45043;51.068;7.026;2022-10-31T09:40:52;100799.88;;;13.77;54.56
59272;BME280;45043;51.068;7.026;2022-10-31T09:44:03;100791.66;;;13.79;54.57
59272;BME280;45043;51.068;7.026;2022-10-31T09:47:13;100792.88;;;13.83;55.09
59272;BME280;45043;51.068;7.026;2022-10-31T09:57:22;100777.72;;;13.77;55.55
59272;BME280;45043;51.068;7.026;2022-10-31T10:00:23;100768.66;;;13.71;55.67
59272;BME280;45043;51.068;7.026;2022-10-31T10:03:43;100765.81;;;13.73;55.59
59272;BME280;45043;51.068;7.026;2022-10-31T10:07:16;100758.34;;;13.88;55.62
59272;BME280;45043;51.068;7.026;2022-10-31T10:17:17;100742.47;;;14.38;54.75
59272;BME280;45043;51.068;7.026;2022-10-31T10:20:54;100747.38;;;14.48;54.38
59272;BME280;45043;51.068;7.026;2022-10-31T10:27:31;100739.94;;;14.81;54.10
59272;BME280;45043;51.068;7.026;2022-10-31T10:30:44;100735.56;;;14.87;53.56
59272;BME280;45043;51.068;7.026;2022-10-31T10:34:10;100736.50;;;14.99;52.73
59272;BME280;45043;51.068;7.026;2022-10-31T10:40:27;100721.09;;;15.38;52.11
59272;BME280;45043;51.068;7.026;2022-10-31T10:43:34;100718.41;;;15.38;51.56
59272;BME280;45043;51.068;7.026;2022-10-31T10:46:46;100703.84;;;15.34;51.33
59272;BME280;45043;51.068;7.026;2022-10-31T10:50:34;100688.75;;;15.21;51.26
59272;BME280;45043;51.068;7.026;2022-10-31T10:53:37;100674.41;;;15.16;51.55
59272;BME280;45043;51.068;7.026;2022-10-31T11:00:03;100694.88;;;15.28;51.56
59272;BME280;45043;51.068;7.026;2022-10-31T11:03:11;100679.91;;;15.39;51.21
59272;BME280;45043;51.068;7.026;2022-10-31T11:06:22;100673.72;;;15.39;50.92
59272;BME280;45043;51.068;7.026;2022-10-31T11:09:26;100661.75;;;15.41;50.80
59272;BME280;45043;51.068;7.026;2022-10-31T11:12:30;100651.75;;;15.55;50.62
59272;BME280;45043;51.068;7.026;2022-10-31T11:15:36;100653.75;;;15.60;50.32
59272;BME280;45043;51.068;7.026;2022-10-31T11:18:41;100661.81;;;15.71;50.24
59272;BME280;45043;51.068;7.026;2022-10-31T11:21:43;100664.38;;;15.66;50.33
59272;BME280;45043;51.068;7.026;2022-10-31T11:24:45;100664.69;;;15.58;50.47
59272;BME280;45043;51.068;7.026;2022-10-31T11:27:47;100667.25;;;15.65;50.27
59272;BME280;45043;51.068;7.026;2022-10-31T11:30:59;100653.47;;;15.79;50.04
59272;BME280;45043;51.068;7.026;2022-10-31T11:34:03;100646.69;;;15.95;49.60
59272;BME280;45043;51.068;7.026;2022-10-31T11:37:14;100646.81;;;16.00;49.29
59272;BME280;45043;51.068;7.026;2022-10-31T11:40:20;100640.91;;;16.10;49.14
59272;BME280;45043;51.068;7.026;2022-10-31T11:43:21;100640.31;;;16.20;48.80
59272;BME280;45043;51.068;7.026;2022-10-31T11:49:42;100629.34;;;16.10;47.94
59272;BME280;45043;51.068;7.026;2022-10-31T11:52:43;100624.69;;;16.17;47.94
59272;BME280;45043;51.068;7.026;2022-10-31T11:55:45;100612.47;;;16.21;47.76
59272;BME280;45043;51.068;7.026;2022-10-31T11:59:02;100592.44;;;16.23;47.37
59272;BME280;45043;51.068;7.026;2022-10-31T12:02:18;100601.78;;;16.33;47.55
59272;BME280;45043;51.068;7.026;2022-10-31T12:05:23;100594.69;;;16.50;47.58
59272;BME280;45043;51.068;7.026;2022-10-31T12:08:31;100590.38;;;16.72;47.11
59272;BME280;45043;51.068;7.026;2022-10-31T12:14:50;100575.41;;;17.00;46.57
59272;BME280;45043;51.068;7.026;2022-10-31T12:31:23;100555.88;;;17.28;44.10
59272;BME280;45043;51.068;7.026;2022-10-31T12:35:21;100553.84;;;17.35;43.77
59272;BME280;45043;51.068;7.026;2022-10-31T12:51:04;100524.56;;;17.34;44.11
59272;BME280;45043;51.068;7.026;2022-10-31T12:57:45;100502.63;;;17.37;43.90
59272;BME280;45043;51.068;7.026;2022-10-31T13:00:54;100493.16;;;17.34;43.81
59272;BME280;45043;51.068;7.026;2022-10-31T13:07:15;100478.72;;;17.23;44.27
59272;BME280;45043;51.068;7.026;2022-10-31T13:10:46;100469.09;;;17.11;44.55
59272;BME280;45043;51.068;7.026;2022-10-31T13:13:59;100464.19;;;17.08;44.28
59272;BME280;45043;51.068;7.026;2022-10-31T13:17:03;100462.25;;;16.91;44.45
59272;BME280;45043;51.068;7.026;2022-10-31T13:23:28;100446.66;;;16.88;44.50
59272;BME280;45043;51.068;7.026;2022-10-31T13:26:38;100438.00;;;16.86;44.76
59272;BME280;45043;51.068;7.026;2022-10-31T13:29:59;100430.69;;;16.82;44.57
59272;BME280;45043;51.068;7.026;2022-10-31T13:33:26;100424.22;;;16.94;44.89
59272;BME280;45043;51.068;7.026;2022-10-31T13:36:53;100422.78;;;17.04;44.59
59272;BME280;45043;51.068;7.026;2022-10-31T13:43:31;100417.28;;;17.10;44.56
59272;BME280;45043;51.068;7.026;2022-10-31T13:52:34;100428.47;;;17.19;45.12
59272;BME280;45043;51.068;7.026;2022-10-31T13:55:43;100418.78;;;17.18;45.00
59272;BME280;45043;51.068;7.026;2022-10-31T13:59:23;100412.88;;;17.04;44.69
59272;BME280;45043;51.068;7.026;2022-10-31T14:02:29;100405.94;;;17.08;45.30
59272;BME280;45043;51.068;7.026;2022-10-31T14:05:33;100394.31;;;17.03;45.03
59272;BME280;45043;51.068;7.026;2022-10-31T14:08:36;100397.97;;;16.96;45.39
59272;BME280;45043;51.068;7.026;2022-10-31T14:11:38;100393.31;;;16.92;44.93
59272;BME280;45043;51.068;7.026;2022-10-31T14:14:46;100391.59;;;16.86;45.42
59272;BME280;45043;51.068;7.026;2022-10-31T14:20:56;100382.53;;;16.75;45.49
59272;BME280;45043;51.068;7.026;2022-10-31T14:23:57;100370.66;;;16.71;45.37
59272;BME280;45043;51.068;7.026;2022-10-31T14:27:30;100352.94;;;16.70;44.92
59272;BME280;45043;51.068;7.026;2022-10-31T14:30:26;100338.38;;;16.66;45.05
59272;BME280;45043;51.068;7.026;2022-10-31T14:33:29;100337.25;;;16.62;44.60
59272;BME280;45043;51.068;7.026;2022-10-31T14:36:43;100329.00;;;16.52;44.97
59272;BME280;45043;51.068;7.026;2022-10-31T14:46:41;100321.00;;;16.40;45.21
59272;BME280;45043;51.068;7.026;2022-10-31T14:50:12;100331.25;;;16.31;45.22
59272;BME280;45043;51.068;7.026;2022-10-31T14:56:58;100325.19;;;16.24;45.51
59272;BME280;45043;51.068;7.026;2022-10-31T15:00:06;100318.31;;;16.28;45.71
59272;BME280;45043;51.068;7.026;2022-10-31T15:03:27;100320.91;;;16.23;45.58
59272;BME280;45043;51.068;7.026;2022-10-31T15:06:31;100312.72;;;16.30;44.74
59272;BME280;45043;51.068;7.026;2022-10-31T15:09:37;100296.16;;;16.33;45.24
59272;BME280;45043;51.068;7.026;2022-10-31T15:12:41;100297.56;;;16.35;44.72
59272;BME280;45043;51.068;7.026;2022-10-31T15:15:42;100293.03;;;16.36;44.85
59272;BME280;45043;51.068;7.026;2022-10-31T15:18:49;100283.94;;;16.37;45.06
59272;BME280;45043;51.068;7.026;2022-10-31T15:21:53;100281.97;;;16.32;44.75
59272;BME280;45043;51.068;7.026;2022-10-31T15:24:54;100267.16;;;16.30;45.36
59272;BME280;45043;51.068;7.026;2022-10-31T15:27:56;100288.75;;;16.23;44.95
59272;BME280;45043;51.068;7.026;2022-10-31T15:30:59;100260.78;;;16.19;45.00
59272;BME280;45043;51.068;7.026;2022-10-31T15:34:11;100261.00;;;16.29;44.37
59272;BME280;45043;51.068;7.026;2022-10-31T15:37:16;100247.47;;;16.24;43.97
59272;BME280;45043;51.068;7.026;2022-10-31T15:40:19;100234.72;;;16.14;44.26
59272;BME280;45043;51.068;7.026;2022-10-31T15:43:20;100236.94;;;16.06;43.70
59272;BME280;45043;51.068;7.026;2022-10-31T15:46:21;100241.25;;;16.07;44.12
59272;BME280;45043;51.068;7.026;2022-10-31T15:50:03;100234.97;;;16.01;43.52
59272;BME280;45043;51.068;7.026;2022-10-31T15:53:04;100232.34;;;15.89;43.80
59272;BME280;45043;51.068;7.026;2022-10-31T15:56:08;100238.41;;;15.85;44.29
59272;BME280;45043;51.068;7.026;2022-10-31T15:59:21;100240.06;;;15.74;44.37
59272;BME280;45043;51.068;7.026;2022-10-31T16:02:25;100222.25;;;15.68;44.55
59272;BME280;45043;51.068;7.026;2022-10-31T16:05:34;100228.25;;;15.58;44.41
59272;BME280;45043;51.068;7.026;2022-10-31T16:08:50;100235.66;;;15.44;44.91
59272;BME280;45043;51.068;7.026;2022-10-31T16:11:51;100219.13;;;15.36;44.80
59272;BME280;45043;51.068;7.026;2022-10-31T16:14:53;100217.41;;;15.41;45.01
59272;BME280;45043;51.068;7.026;2022-10-31T16:17:55;100225.31;;;15.36;45.28
59272;BME280;45043;51.068;7.026;2022-10-31T16:20:56;100212.06;;;15.29;45.27
59272;BME280;45043;51.068;7.026;2022-10-31T16:24:12;100209.59;;;15.16;45.47
59272;BME280;45043;51.068;7.026;2022-10-31T16:27:22;100205.78;;;15.12;45.28
59272;BME280;45043;51.068;7.026;2022-10-31T16:30:34;100205.41;;;15.09;45.37
59272;BME280;45043;51.068;7.026;2022-10-31T16:33:37;100202.84;;;15.02;45.48
59272;BME280;45043;51.068;7.026;2022-10-31T16:36:37;100214.84;;;14.99;45.50
59272;BME280;45043;51.068;7.026;2022-10-31T16:39:38;100205.06;;;14.93;45.77
59272;BME280;45043;51.068;7.026;2022-10-31T16:42:39;100208.34;;;14.95;45.55
59272;BME280;45043;51.068;7.026;2022-10-31T16:45:46;100208.81;;;14.92;45.59
59272;BME280;45043;51.068;7.026;2022-10-31T16:48:47;100207.63;;;14.88;45.89
59272;BME280;45043;51.068;7.026;2022-10-31T16:51:47;100207.03;;;14.86;45.88
59272;BME280;45043;51.068;7.026;2022-10-31T16:54:48;100212.41;;;14.86;45.97
59272;BME280;45043;51.068;7.026;2022-10-31T16:57:55;100203.56;;;14.86;45.54
59272;BME280;45043;51.068;7.026;2022-10-31T17:00:57;100210.19;;;14.83;45.71
59272;BME280;45043;51.068;7.026;2022-10-31T17:03:58;100205.88;;;14.82;45.84
59272;BME280;45043;51.068;7.026;2022-10-31T17:06:58;100206.59;;;14.77;45.66
59272;BME280;45043;51.068;7.026;2022-10-31T17:09:59;100206.22;;;14.74;45.89
59272;BME280;45043;51.068;7.026;2022-10-31T17:13:01;100207.38;;;14.78;45.72
59272;BME280;45043;51.068;7.026;2022-10-31T17:16:03;100204.72;;;14.78;45.93
59272;BME280;45043;51.068;7.026;2022-10-31T17:19:04;100203.09;;;14.77;45.35
59272;BME280;45043;51.068;7.026;2022-10-31T17:22:04;100199.13;;;14.79;45.50
59272;BME280;45043;51.068;7.026;2022-10-31T17:25:07;100194.59;;;14.80;45.03
59272;BME280;45043;51.068;7.026;2022-10-31T17:28:11;100198.66;;;14.82;44.38
59272;BME280;45043;51.068;7.026;2022-10-31T17:31:21;100209.72;;;14.86;44.12
59272;BME280;45043;51.068;7.026;2022-10-31T17:34:22;100198.66;;;14.82;44.42
59272;BME280;45043;51.068;7.026;2022-10-31T17:37:23;100213.34;;;14.92;43.98
59272;BME280;45043;51.068;7.026;2022-10-31T17:40:23;100212.03;;;14.94;44.22
59272;BME280;45043;51.068;7.026;2022-10-31T17:43:24;100199.72;;;14.93;44.50
59272;BME280;45043;51.068;7.026;2022-10-31T17:46:26;100203.00;;;14.95;44.70
59272;BME280;45043;51.068;7.026;2022-10-31T17:49:28;100206.69;;;14.94;45.40
59272;BME280;45043;51.068;7.026;2022-10-31T17:52:28;100178.69;;;14.85;45.66
59272;BME280;45043;51.068;7.026;2022-10-31T17:55:30;100188.31;;;14.86;45.65
59272;BME280;45043;51.068;7.026;2022-10-31T17:58:32;100199.47;;;14.83;45.80
59272;BME280;45043;51.068;7.026;2022-10-31T18:01:33;100199.59;;;14.76;46.29